sensor_id;sensor_type;location;lat;lon;timestamp;P1;durP1;ratioP1;P2;durP2;ratioP2
66585;SDS011;53444;45.822;16.092;2023-07-22T06:17:00;6.13;;;3.13;;
66585;SDS011;53444;45.822;16.092;2023-07-22T06:19:27;3.57;;;3.00;;
66585;SDS011;53444;45.822;16.092;2023-07-22T06:21:54;8.45;;;3.25;;
66585;SDS011;53444;45.822;16.092;2023-07-22T06:24:21;3.60;;;2.83;;
66585;SDS011;53444;45.822;16.092;2023-07-22T06:26:47;3.78;;;2.83;;
66585;SDS011;53444;45.822;16.092;2023-07-22T06:29:14;5.53;;;3.10;;
66585;SDS011;53444;45.822;16.092;2023-07-22T06:31:41;4.17;;;3.03;;
66585;SDS011;53444;45.822;16.092;2023-07-22T06:34:09;7.05;;;3.13;;
66585;SDS011;53444;45.822;16.092;2023-07-22T06:36:36;5.03;;;2.97;;
66585;SDS011;53444;45.822;16.092;2023-07-22T06:39:03;4.70;;;3.40;;
66585;SDS011;53444;45.822;16.092;2023-07-22T06:41:29;4.80;;;3.40;;
66585;SDS011;53444;45.822;16.092;2023-07-22T06:43:56;5.50;;;3.37;;
66585;SDS011;53444;45.822;16.092;2023-07-22T06:46:23;4.82;;;3.60;;
66585;SDS011;53444;45.822;16.092;2023-07-22T06:48:49;4.32;;;3.50;;
66585;SDS011;53444;45.822;16.092;2023-07-22T06:51:17;5.38;;;3.95;;
66585;SDS011;53444;45.822;16.092;2023-07-22T06:53:44;8.13;;;4.15;;
66585;SDS011;53444;45.822;16.092;2023-07-22T06:56:11;6.73;;;3.90;;
66585;SDS011;53444;45.822;16.092;2023-07-22T06:58:37;4.72;;;3.85;;
66585;SDS011;53444;45.822;16.092;2023-07-22T07:01:04;4.18;;;3.47;;
66585;SDS011;53444;45.822;16.092;2023-07-22T07:03:31;4.63;;;3.40;;
66585;SDS011;53444;45.822;16.092;2023-07-22T07:05:58;5.35;;;3.55;;
66585;SDS011;53444;45.822;16.092;2023-07-22T07:08:26;8.77;;;4.00;;
66585;SDS011;53444;45.822;16.092;2023-07-22T07:10:53;4.35;;;3.63;;
66585;SDS011;53444;45.822;16.092;2023-07-22T07:13:20;7.60;;;3.45;;
66585;SDS011;53444;45.822;16.092;2023-07-22T07:15:47;6.28;;;4.30;;
66585;SDS011;53444;45.822;16.092;2023-07-22T07:18:15;6.97;;;4.45;;
66585;SDS011;53444;45.822;16.092;2023-07-22T07:20:43;7.00;;;4.30;;
66585;SDS011;53444;45.822;16.092;2023-07-22T07:23:13;4.95;;;4.07;;
66585;SDS011;53444;45.822;16.092;2023-07-22T07:25:42;8.82;;;6.00;;
66585;SDS011;53444;45.822;16.092;2023-07-22T07:28:14;4.85;;;4.20;;
66585;SDS011;53444;45.822;16.092;2023-07-22T07:30:43;7.05;;;4.00;;
66585;SDS011;53444;45.822;16.092;2023-07-22T07:33:10;6.20;;;4.83;;
66585;SDS011;53444;45.822;16.092;2023-07-22T07:35:36;6.32;;;5.10;;
66585;SDS011;53444;45.822;16.092;2023-07-22T07:38:03;6.25;;;4.30;;
66585;SDS011;53444;45.822;16.092;2023-07-22T07:40:30;5.32;;;4.30;;
66585;SDS011;53444;45.822;16.092;2023-07-22T07:42:59;6.93;;;4.80;;
66585;SDS011;53444;45.822;16.092;2023-07-22T07:45:26;5.90;;;4.63;;
66585;SDS011;53444;45.822;16.092;2023-07-22T07:47:57;6.20;;;4.50;;
66585;SDS011;53444;45.822;16.092;2023-07-22T07:50:23;8.60;;;4.57;;
66585;SDS011;53444;45.822;16.092;2023-07-22T07:52:50;6.15;;;5.10;;
66585;SDS011;53444;45.822;16.092;2023-07-22T07:55:17;6.38;;;4.43;;
66585;SDS011;53444;45.822;16.092;2023-07-22T07:57:45;5.60;;;4.03;;
66585;SDS011;53444;45.822;16.092;2023-07-22T08:00:13;6.22;;;4.00;;
66585;SDS011;53444;45.822;16.092;2023-07-22T08:02:40;7.20;;;4.60;;
66585;SDS011;53444;45.822;16.092;2023-07-22T08:05:07;5.95;;;4.28;;
66585;SDS011;53444;45.822;16.092;2023-07-22T08:07:35;6.00;;;4.60;;
66585;SDS011;53444;45.822;16.092;2023-07-22T08:10:03;5.87;;;4.33;;
66585;SDS011;53444;45.822;16.092;2023-07-22T08:12:32;6.40;;;3.92;;
66585;SDS011;53444;45.822;16.092;2023-07-22T08:14:59;4.65;;;3.83;;
66585;SDS011;53444;45.822;16.092;2023-07-22T08:17:28;4.72;;;4.32;;
66585;SDS011;53444;45.822;16.092;2023-07-22T08:19:54;4.95;;;3.88;;
66585;SDS011;53444;45.822;16.092;2023-07-22T08:22:21;3.97;;;2.57;;
66585;SDS011;53444;45.822;16.092;2023-07-22T08:24:47;2.70;;;2.30;;
66585;SDS011;53444;45.822;16.092;2023-07-22T08:27:14;4.88;;;2.67;;
66585;SDS011;53444;45.822;16.092;2023-07-22T08:29:41;4.32;;;2.92;;
66585;SDS011;53444;45.822;16.092;2023-07-22T08:32:08;3.70;;;2.88;;
66585;SDS011;53444;45.822;16.092;2023-07-22T08:34:36;4.37;;;2.73;;
66585;SDS011;53444;45.822;16.092;2023-07-22T08:37:03;3.70;;;2.78;;
66585;SDS011;53444;45.822;16.092;2023-07-22T08:39:31;5.25;;;3.20;;
66585;SDS011;53444;45.822;16.092;2023-07-22T08:41:58;4.20;;;2.97;;
66585;SDS011;53444;45.822;16.092;2023-07-22T08:44:29;3.58;;;2.70;;
66585;SDS011;53444;45.822;16.092;2023-07-22T08:47:02;2.97;;;2.53;;
66585;SDS011;53444;45.822;16.092;2023-07-22T08:49:31;3.22;;;2.60;;
66585;SDS011;53444;45.822;16.092;2023-07-22T08:52:00;2.85;;;2.55;;
66585;SDS011;53444;45.822;16.092;2023-07-22T08:54:27;3.75;;;2.67;;
66585;SDS011;53444;45.822;16.092;2023-07-22T08:56:54;3.70;;;2.75;;
66585;SDS011;53444;45.822;16.092;2023-07-22T08:59:21;3.30;;;3.00;;
66585;SDS011;53444;45.822;16.092;2023-07-22T09:01:48;3.20;;;2.90;;
66585;SDS011;53444;45.822;16.092;2023-07-22T09:04:17;3.47;;;2.58;;
66585;SDS011;53444;45.822;16.092;2023-07-22T09:06:44;4.63;;;2.88;;
66585;SDS011;53444;45.822;16.092;2023-07-22T09:09:13;3.58;;;3.08;;
66585;SDS011;53444;45.822;16.092;2023-07-22T09:11:40;3.23;;;2.83;;
66585;SDS011;53444;45.822;16.092;2023-07-22T09:14:08;4.75;;;3.45;;
66585;SDS011;53444;45.822;16.092;2023-07-22T09:16:36;4.72;;;3.10;;
66585;SDS011;53444;45.822;16.092;2023-07-22T09:19:03;3.80;;;2.80;;
66585;SDS011;53444;45.822;16.092;2023-07-22T09:21:31;4.50;;;3.08;;
66585;SDS011;53444;45.822;16.092;2023-07-22T09:24:00;4.57;;;2.80;;
66585;SDS011;53444;45.822;16.092;2023-07-22T09:26:30;3.90;;;2.75;;
66585;SDS011;53444;45.822;16.092;2023-07-22T09:28:59;4.70;;;3.20;;
66585;SDS011;53444;45.822;16.092;2023-07-22T09:31:26;3.20;;;2.90;;
66585;SDS011;53444;45.822;16.092;2023-07-22T09:33:53;4.00;;;2.90;;
66585;SDS011;53444;45.822;16.092;2023-07-22T09:36:20;3.00;;;2.60;;
66585;SDS011;53444;45.822;16.092;2023-07-22T09:38:58;3.67;;;2.88;;
66585;SDS011;53444;45.822;16.092;2023-07-22T09:41:29;3.85;;;3.20;;
66585;SDS011;53444;45.822;16.092;2023-07-22T09:43:56;3.50;;;3.00;;
66585;SDS011;53444;45.822;16.092;2023-07-22T09:46:22;4.28;;;3.88;;
66585;SDS011;53444;45.822;16.092;2023-07-22T09:49:01;3.70;;;3.37;;
66585;SDS011;53444;45.822;16.092;2023-07-22T09:51:33;5.97;;;3.40;;
66585;SDS011;53444;45.822;16.092;2023-07-22T09:54:02;5.03;;;3.90;;
66585;SDS011;53444;45.822;16.092;2023-07-22T09:56:30;3.28;;;2.75;;
66585;SDS011;53444;45.822;16.092;2023-07-22T09:59:10;3.83;;;3.25;;
66585;SDS011;53444;45.822;16.092;2023-07-22T10:01:38;3.60;;;2.57;;
66585;SDS011;53444;45.822;16.092;2023-07-22T10:04:05;4.90;;;3.33;;
66585;SDS011;53444;45.822;16.092;2023-07-22T10:06:33;3.35;;;3.00;;
66585;SDS011;53444;45.822;16.092;2023-07-22T10:09:04;5.55;;;3.30;;
66585;SDS011;53444;45.822;16.092;2023-07-22T10:11:35;5.70;;;3.22;;
66585;SDS011;53444;45.822;16.092;2023-07-22T10:14:03;3.17;;;2.87;;
66585;SDS011;53444;45.822;16.092;2023-07-22T10:16:35;3.90;;;3.00;;
66585;SDS011;53444;45.822;16.092;2023-07-22T10:19:04;3.83;;;3.05;;
66585;SDS011;53444;45.822;16.092;2023-07-22T10:21:32;3.45;;;3.15;;
66585;SDS011;53444;45.822;16.092;2023-07-22T10:24:01;4.60;;;3.25;;
66585;SDS011;53444;45.822;16.092;2023-07-22T10:26:28;3.60;;;3.10;;
66585;SDS011;53444;45.822;16.092;2023-07-22T10:28:57;3.10;;;2.78;;
66585;SDS011;53444;45.822;16.092;2023-07-22T10:31:25;3.70;;;2.88;;
66585;SDS011;53444;45.822;16.092;2023-07-22T10:33:56;4.88;;;2.72;;
66585;SDS011;53444;45.822;16.092;2023-07-22T10:36:23;3.17;;;2.88;;
66585;SDS011;53444;45.822;16.092;2023-07-22T10:38:56;3.90;;;2.90;;
66585;SDS011;53444;45.822;16.092;2023-07-22T10:41:24;3.30;;;3.00;;
66585;SDS011;53444;45.822;16.092;2023-07-22T10:44:05;3.35;;;2.80;;
66585;SDS011;53444;45.822;16.092;2023-07-22T10:46:56;3.75;;;3.38;;
66585;SDS011;53444;45.822;16.092;2023-07-22T10:49:45;4.15;;;3.60;;
66585;SDS011;53444;45.822;16.092;2023-07-22T10:56:05;4.00;;;3.20;;
66585;SDS011;53444;45.822;16.092;2023-07-22T10:58:58;3.60;;;3.00;;
66585;SDS011;53444;45.822;16.092;2023-07-22T11:01:40;3.78;;;3.00;;
66585;SDS011;53444;45.822;16.092;2023-07-22T11:04:16;3.55;;;3.17;;
66585;SDS011;53444;45.822;16.092;2023-07-22T11:06:55;4.43;;;3.67;;
66585;SDS011;53444;45.822;16.092;2023-07-22T11:09:35;4.00;;;3.60;;
66585;SDS011;53444;45.822;16.092;2023-07-22T11:12:05;3.70;;;3.40;;
66585;SDS011;53444;45.822;16.092;2023-07-22T11:14:33;4.25;;;2.90;;
66585;SDS011;53444;45.822;16.092;2023-07-22T11:17:03;4.50;;;3.05;;
66585;SDS011;53444;45.822;16.092;2023-07-22T11:19:32;4.53;;;3.53;;
66585;SDS011;53444;45.822;16.092;2023-07-22T11:21:59;5.38;;;3.50;;
66585;SDS011;53444;45.822;16.092;2023-07-22T11:24:26;3.58;;;3.08;;
66585;SDS011;53444;45.822;16.092;2023-07-22T11:26:53;4.80;;;3.13;;
66585;SDS011;53444;45.822;16.092;2023-07-22T11:29:21;4.32;;;3.92;;
66585;SDS011;53444;45.822;16.092;2023-07-22T11:31:48;5.97;;;4.93;;
66585;SDS011;53444;45.822;16.092;2023-07-22T11:34:18;5.88;;;3.65;;
66585;SDS011;53444;45.822;16.092;2023-07-22T11:36:46;6.60;;;3.50;;
66585;SDS011;53444;45.822;16.092;2023-07-22T11:39:14;3.78;;;3.38;;
66585;SDS011;53444;45.822;16.092;2023-07-22T11:41:45;5.72;;;4.30;;
66585;SDS011;53444;45.822;16.092;2023-07-22T11:44:13;7.57;;;5.30;;
66585;SDS011;53444;45.822;16.092;2023-07-22T11:46:52;7.65;;;4.93;;
66585;SDS011;53444;45.822;16.092;2023-07-22T11:49:25;7.65;;;5.72;;
66585;SDS011;53444;45.822;16.092;2023-07-22T11:51:56;8.68;;;7.53;;
66585;SDS011;53444;45.822;16.092;2023-07-22T11:54:24;6.47;;;5.00;;
66585;SDS011;53444;45.822;16.092;2023-07-22T11:56:51;5.03;;;4.10;;
66585;SDS011;53444;45.822;16.092;2023-07-22T11:59:33;6.35;;;4.80;;
66585;SDS011;53444;45.822;16.092;2023-07-22T12:02:02;16.73;;;11.45;;
66585;SDS011;53444;45.822;16.092;2023-07-22T12:04:32;40.35;;;24.70;;
66585;SDS011;53444;45.822;16.092;2023-07-22T12:07:02;30.80;;;18.42;;
66585;SDS011;53444;45.822;16.092;2023-07-22T12:09:31;57.47;;;31.30;;
66585;SDS011;53444;45.822;16.092;2023-07-22T12:11:59;33.75;;;19.73;;
66585;SDS011;53444;45.822;16.092;2023-07-22T12:14:33;16.52;;;9.38;;
66585;SDS011;53444;45.822;16.092;2023-07-22T12:17:01;16.27;;;10.18;;
66585;SDS011;53444;45.822;16.092;2023-07-22T12:19:29;49.55;;;26.75;;
66585;SDS011;53444;45.822;16.092;2023-07-22T12:22:09;19.50;;;12.60;;
66585;SDS011;53444;45.822;16.092;2023-07-22T12:24:37;18.05;;;12.35;;
66585;SDS011;53444;45.822;16.092;2023-07-22T12:27:05;20.83;;;13.65;;
66585;SDS011;53444;45.822;16.092;2023-07-22T12:29:33;19.08;;;11.77;;
66585;SDS011;53444;45.822;16.092;2023-07-22T12:32:00;18.17;;;11.80;;
66585;SDS011;53444;45.822;16.092;2023-07-22T12:34:33;18.77;;;12.63;;
66585;SDS011;53444;45.822;16.092;2023-07-22T12:37:10;9.23;;;5.45;;
66585;SDS011;53444;45.822;16.092;2023-07-22T12:39:37;5.47;;;3.90;;
66585;SDS011;53444;45.822;16.092;2023-07-22T12:42:04;4.10;;;3.70;;
66585;SDS011;53444;45.822;16.092;2023-07-22T12:44:31;4.65;;;3.88;;
66585;SDS011;53444;45.822;16.092;2023-07-22T12:47:19;4.07;;;3.33;;
66585;SDS011;53444;45.822;16.092;2023-07-22T12:50:14;4.20;;;3.67;;
66585;SDS011;53444;45.822;16.092;2023-07-22T12:52:49;3.60;;;3.30;;
66585;SDS011;53444;45.822;16.092;2023-07-22T12:55:21;6.55;;;3.50;;
66585;SDS011;53444;45.822;16.092;2023-07-22T12:57:53;3.80;;;3.22;;
66585;SDS011;53444;45.822;16.092;2023-07-22T13:00:26;4.23;;;3.53;;
66585;SDS011;53444;45.822;16.092;2023-07-22T13:02:55;3.90;;;3.40;;
66585;SDS011;53444;45.822;16.092;2023-07-22T13:09:01;6.25;;;4.55;;
66585;SDS011;53444;45.822;16.092;2023-07-22T13:11:52;5.78;;;3.80;;
66585;SDS011;53444;45.822;16.092;2023-07-22T13:14:29;3.37;;;3.00;;
66585;SDS011;53444;45.822;16.092;2023-07-22T13:17:19;6.50;;;3.20;;
66585;SDS011;53444;45.822;16.092;2023-07-22T13:20:00;4.32;;;3.47;;
66585;SDS011;53444;45.822;16.092;2023-07-22T13:22:50;4.95;;;3.63;;
66585;SDS011;53444;45.822;16.092;2023-07-22T13:25:49;3.92;;;3.20;;
66585;SDS011;53444;45.822;16.092;2023-07-22T13:28:48;3.90;;;3.00;;
66585;SDS011;53444;45.822;16.092;2023-07-22T13:31:32;3.88;;;2.95;;
66585;SDS011;53444;45.822;16.092;2023-07-22T13:34:11;3.17;;;2.80;;
66585;SDS011;53444;45.822;16.092;2023-07-22T13:36:40;7.50;;;3.22;;
66585;SDS011;53444;45.822;16.092;2023-07-22T13:39:11;4.10;;;3.00;;
66585;SDS011;53444;45.822;16.092;2023-07-22T13:41:49;3.50;;;2.57;;
66585;SDS011;53444;45.822;16.092;2023-07-22T13:44:27;4.53;;;3.22;;
66585;SDS011;53444;45.822;16.092;2023-07-22T13:46:54;3.78;;;3.35;;
66585;SDS011;53444;45.822;16.092;2023-07-22T13:49:22;3.50;;;2.67;;
66585;SDS011;53444;45.822;16.092;2023-07-22T13:51:49;4.80;;;3.20;;
66585;SDS011;53444;45.822;16.092;2023-07-22T13:54:16;3.97;;;3.47;;
66585;SDS011;53444;45.822;16.092;2023-07-22T13:56:45;3.72;;;2.88;;
66585;SDS011;53444;45.822;16.092;2023-07-22T13:59:14;4.90;;;3.40;;
66585;SDS011;53444;45.822;16.092;2023-07-22T14:01:41;4.05;;;3.13;;
66585;SDS011;53444;45.822;16.092;2023-07-22T14:04:08;3.88;;;3.47;;
66585;SDS011;53444;45.822;16.092;2023-07-22T14:06:35;3.63;;;3.33;;
66585;SDS011;53444;45.822;16.092;2023-07-22T14:09:02;4.05;;;3.50;;
66585;SDS011;53444;45.822;16.092;2023-07-22T14:11:30;3.42;;;3.08;;
66585;SDS011;53444;45.822;16.092;2023-07-22T14:13:57;6.07;;;3.33;;
66585;SDS011;53444;45.822;16.092;2023-07-22T14:16:26;4.22;;;3.55;;
66585;SDS011;53444;45.822;16.092;2023-07-22T14:18:53;5.73;;;3.07;;
66585;SDS011;53444;45.822;16.092;2023-07-22T14:21:20;3.75;;;2.95;;
66585;SDS011;53444;45.822;16.092;2023-07-22T14:23:47;3.42;;;2.67;;
66585;SDS011;53444;45.822;16.092;2023-07-22T14:26:14;3.15;;;2.85;;
66585;SDS011;53444;45.822;16.092;2023-07-22T14:28:40;3.90;;;2.92;;
66585;SDS011;53444;45.822;16.092;2023-07-22T14:31:07;3.03;;;2.63;;
66585;SDS011;53444;45.822;16.092;2023-07-22T14:33:40;4.22;;;3.10;;
66585;SDS011;53444;45.822;16.092;2023-07-22T14:36:08;4.25;;;3.05;;
66585;SDS011;53444;45.822;16.092;2023-07-22T14:38:43;5.85;;;3.65;;
66585;SDS011;53444;45.822;16.092;2023-07-22T14:41:10;4.03;;;3.50;;
66585;SDS011;53444;45.822;16.092;2023-07-22T14:43:37;4.37;;;3.00;;
66585;SDS011;53444;45.822;16.092;2023-07-22T14:46:04;3.33;;;2.70;;
66585;SDS011;53444;45.822;16.092;2023-07-22T14:48:31;3.97;;;3.20;;
66585;SDS011;53444;45.822;16.092;2023-07-22T14:51:08;4.25;;;3.55;;
66585;SDS011;53444;45.822;16.092;2023-07-22T14:53:39;5.22;;;3.15;;
66585;SDS011;53444;45.822;16.092;2023-07-22T14:56:06;4.33;;;3.80;;
66585;SDS011;53444;45.822;16.092;2023-07-22T14:58:33;4.40;;;3.28;;
66585;SDS011;53444;45.822;16.092;2023-07-22T15:01:00;5.75;;;3.47;;
66585;SDS011;53444;45.822;16.092;2023-07-22T15:03:27;7.93;;;4.05;;
66585;SDS011;53444;45.822;16.092;2023-07-22T15:05:54;7.22;;;3.90;;
66585;SDS011;53444;45.822;16.092;2023-07-22T15:08:22;5.50;;;3.80;;
66585;SDS011;53444;45.822;16.092;2023-07-22T15:10:49;5.28;;;3.50;;
66585;SDS011;53444;45.822;16.092;2023-07-22T15:13:16;7.25;;;3.20;;
66585;SDS011;53444;45.822;16.092;2023-07-22T15:15:42;5.63;;;3.80;;
66585;SDS011;53444;45.822;16.092;2023-07-22T15:18:09;6.47;;;3.83;;
66585;SDS011;53444;45.822;16.092;2023-07-22T15:20:36;6.13;;;3.97;;
66585;SDS011;53444;45.822;16.092;2023-07-22T15:23:02;5.22;;;4.00;;
66585;SDS011;53444;45.822;16.092;2023-07-22T15:25:30;6.05;;;4.22;;
66585;SDS011;53444;45.822;16.092;2023-07-22T15:27:57;4.63;;;3.47;;
66585;SDS011;53444;45.822;16.092;2023-07-22T15:30:24;5.00;;;3.88;;
66585;SDS011;53444;45.822;16.092;2023-07-22T15:32:51;5.87;;;3.73;;
66585;SDS011;53444;45.822;16.092;2023-07-22T15:35:18;6.28;;;4.00;;
66585;SDS011;53444;45.822;16.092;2023-07-22T15:37:46;6.38;;;4.00;;
66585;SDS011;53444;45.822;16.092;2023-07-22T15:40:13;5.40;;;3.72;;
66585;SDS011;53444;45.822;16.092;2023-07-22T15:42:56;6.65;;;3.88;;
66585;SDS011;53444;45.822;16.092;2023-07-22T15:45:28;4.73;;;3.87;;
66585;SDS011;53444;45.822;16.092;2023-07-22T15:47:54;5.07;;;3.63;;
66585;SDS011;53444;45.822;16.092;2023-07-22T15:50:22;6.07;;;4.10;;
66585;SDS011;53444;45.822;16.092;2023-07-22T15:52:51;6.10;;;3.85;;
66585;SDS011;53444;45.822;16.092;2023-07-22T15:55:20;6.63;;;4.20;;
66585;SDS011;53444;45.822;16.092;2023-07-22T15:57:53;5.33;;;3.90;;
66585;SDS011;53444;45.822;16.092;2023-07-22T16:00:21;5.38;;;3.95;;
66585;SDS011;53444;45.822;16.092;2023-07-22T16:02:48;6.25;;;3.92;;
66585;SDS011;53444;45.822;16.092;2023-07-22T16:05:16;6.85;;;3.92;;
66585;SDS011;53444;45.822;16.092;2023-07-22T16:07:43;6.55;;;4.00;;
66585;SDS011;53444;45.822;16.092;2023-07-22T16:10:10;8.97;;;4.30;;
66585;SDS011;53444;45.822;16.092;2023-07-22T16:12:38;6.75;;;4.25;;
66585;SDS011;53444;45.822;16.092;2023-07-22T16:15:08;7.03;;;4.00;;
66585;SDS011;53444;45.822;16.092;2023-07-22T16:17:35;6.82;;;4.38;;
66585;SDS011;53444;45.822;16.092;2023-07-22T16:20:02;6.60;;;4.72;;
66585;SDS011;53444;45.822;16.092;2023-07-22T16:22:30;6.93;;;4.97;;
66585;SDS011;53444;45.822;16.092;2023-07-22T16:24:57;5.03;;;4.35;;
66585;SDS011;53444;45.822;16.092;2023-07-22T16:27:23;5.65;;;4.47;;
66585;SDS011;53444;45.822;16.092;2023-07-22T16:29:50;6.40;;;4.82;;
66585;SDS011;53444;45.822;16.092;2023-07-22T16:32:18;7.47;;;4.50;;
66585;SDS011;53444;45.822;16.092;2023-07-22T16:34:45;5.80;;;4.33;;
66585;SDS011;53444;45.822;16.092;2023-07-22T16:37:12;7.13;;;4.60;;
66585;SDS011;53444;45.822;16.092;2023-07-22T16:39:41;9.13;;;4.95;;
66585;SDS011;53444;45.822;16.092;2023-07-22T16:42:08;6.40;;;4.72;;
66585;SDS011;53444;45.822;16.092;2023-07-22T16:44:35;6.47;;;4.47;;
66585;SDS011;53444;45.822;16.092;2023-07-22T16:47:01;6.80;;;4.50;;
66585;SDS011;53444;45.822;16.092;2023-07-22T16:49:30;6.60;;;4.30;;
66585;SDS011;53444;45.822;16.092;2023-07-22T16:51:57;6.95;;;4.70;;
66585;SDS011;53444;45.822;16.092;2023-07-22T16:54:23;6.30;;;4.55;;
66585;SDS011;53444;45.822;16.092;2023-07-22T16:56:51;7.10;;;4.72;;
66585;SDS011;53444;45.822;16.092;2023-07-22T16:59:18;5.90;;;4.57;;
66585;SDS011;53444;45.822;16.092;2023-07-22T17:01:44;5.43;;;3.95;;
66585;SDS011;53444;45.822;16.092;2023-07-22T17:04:11;5.15;;;4.40;;
66585;SDS011;53444;45.822;16.092;2023-07-22T17:06:39;6.60;;;4.40;;
66585;SDS011;53444;45.822;16.092;2023-07-22T17:09:06;6.15;;;4.40;;
66585;SDS011;53444;45.822;16.092;2023-07-22T17:11:33;7.40;;;4.27;;
66585;SDS011;53444;45.822;16.092;2023-07-22T17:13:59;5.43;;;4.20;;
66585;SDS011;53444;45.822;16.092;2023-07-22T17:16:26;5.22;;;3.80;;
66585;SDS011;53444;45.822;16.092;2023-07-22T17:18:52;4.57;;;3.80;;
66585;SDS011;53444;45.822;16.092;2023-07-22T17:21:19;5.78;;;3.90;;
66585;SDS011;53444;45.822;16.092;2023-07-22T17:23:47;4.17;;;3.63;;
66585;SDS011;53444;45.822;16.092;2023-07-22T17:26:14;4.03;;;3.50;;
66585;SDS011;53444;45.822;16.092;2023-07-22T17:28:41;5.15;;;3.72;;
66585;SDS011;53444;45.822;16.092;2023-07-22T17:31:08;4.28;;;3.55;;
66585;SDS011;53444;45.822;16.092;2023-07-22T17:33:35;6.20;;;4.35;;
66585;SDS011;53444;45.822;16.092;2023-07-22T17:36:02;4.43;;;3.70;;
66585;SDS011;53444;45.822;16.092;2023-07-22T17:38:29;5.60;;;4.13;;
66585;SDS011;53444;45.822;16.092;2023-07-22T17:40:57;5.70;;;4.20;;
66585;SDS011;53444;45.822;16.092;2023-07-22T17:43:24;4.28;;;3.28;;
66585;SDS011;53444;45.822;16.092;2023-07-22T17:45:50;5.50;;;3.92;;
66585;SDS011;53444;45.822;16.092;2023-07-22T17:48:18;5.37;;;3.90;;
66585;SDS011;53444;45.822;16.092;2023-07-22T17:50:46;4.93;;;3.63;;
66585;SDS011;53444;45.822;16.092;2023-07-22T17:53:13;7.72;;;3.92;;
66585;SDS011;53444;45.822;16.092;2023-07-22T17:55:40;6.05;;;4.10;;
66585;SDS011;53444;45.822;16.092;2023-07-22T17:58:09;5.93;;;3.28;;
66585;SDS011;53444;45.822;16.092;2023-07-22T18:00:36;5.60;;;3.67;;
66585;SDS011;53444;45.822;16.092;2023-07-22T18:03:12;6.25;;;3.58;;
66585;SDS011;53444;45.822;16.092;2023-07-22T18:05:45;5.25;;;3.63;;
66585;SDS011;53444;45.822;16.092;2023-07-22T18:08:13;6.10;;;3.90;;
66585;SDS011;53444;45.822;16.092;2023-07-22T18:10:44;4.63;;;3.83;;
66585;SDS011;53444;45.822;16.092;2023-07-22T18:13:22;4.33;;;3.03;;
66585;SDS011;53444;45.822;16.092;2023-07-22T18:15:50;5.72;;;3.75;;
66585;SDS011;53444;45.822;16.092;2023-07-22T18:18:16;4.30;;;3.88;;
66585;SDS011;53444;45.822;16.092;2023-07-22T18:20:43;4.88;;;4.13;;
66585;SDS011;53444;45.822;16.092;2023-07-22T18:23:10;5.60;;;4.05;;
66585;SDS011;53444;45.822;16.092;2023-07-22T18:25:37;5.67;;;3.60;;
66585;SDS011;53444;45.822;16.092;2023-07-22T18:28:04;5.57;;;4.07;;
66585;SDS011;53444;45.822;16.092;2023-07-22T18:30:34;8.13;;;3.88;;
66585;SDS011;53444;45.822;16.092;2023-07-22T18:33:01;5.97;;;3.80;;
66585;SDS011;53444;45.822;16.092;2023-07-22T18:35:28;5.32;;;3.75;;
66585;SDS011;53444;45.822;16.092;2023-07-22T18:37:54;5.07;;;3.33;;
66585;SDS011;53444;45.822;16.092;2023-07-22T18:40:22;8.40;;;3.72;;
66585;SDS011;53444;45.822;16.092;2023-07-22T18:42:48;4.93;;;3.45;;
66585;SDS011;53444;45.822;16.092;2023-07-22T18:45:15;6.75;;;3.40;;
66585;SDS011;53444;45.822;16.092;2023-07-22T18:47:43;5.25;;;3.63;;
66585;SDS011;53444;45.822;16.092;2023-07-22T18:50:10;6.47;;;3.73;;
66585;SDS011;53444;45.822;16.092;2023-07-22T18:52:37;4.53;;;3.58;;
66585;SDS011;53444;45.822;16.092;2023-07-22T18:55:04;5.40;;;3.80;;
66585;SDS011;53444;45.822;16.092;2023-07-22T18:57:31;5.70;;;3.72;;
66585;SDS011;53444;45.822;16.092;2023-07-22T18:59:58;4.72;;;3.33;;
66585;SDS011;53444;45.822;16.092;2023-07-22T19:02:26;6.00;;;3.83;;
66585;SDS011;53444;45.822;16.092;2023-07-22T19:04:55;6.50;;;3.47;;
66585;SDS011;53444;45.822;16.092;2023-07-22T19:07:22;6.95;;;4.30;;
66585;SDS011;53444;45.822;16.092;2023-07-22T19:09:49;5.03;;;3.80;;
66585;SDS011;53444;45.822;16.092;2023-07-22T19:12:18;5.45;;;4.10;;
66585;SDS011;53444;45.822;16.092;2023-07-22T19:14:51;5.17;;;3.50;;
66585;SDS011;53444;45.822;16.092;2023-07-22T19:17:18;5.65;;;3.90;;
66585;SDS011;53444;45.822;16.092;2023-07-22T19:19:45;5.72;;;3.30;;
66585;SDS011;53444;45.822;16.092;2023-07-22T19:22:13;4.20;;;3.30;;
66585;SDS011;53444;45.822;16.092;2023-07-22T19:24:40;6.30;;;3.60;;
66585;SDS011;53444;45.822;16.092;2023-07-22T19:27:07;5.17;;;3.33;;
66585;SDS011;53444;45.822;16.092;2023-07-22T19:29:34;5.07;;;3.22;;
66585;SDS011;53444;45.822;16.092;2023-07-22T19:32:01;4.40;;;3.40;;
66585;SDS011;53444;45.822;16.092;2023-07-22T19:34:28;4.53;;;3.38;;
66585;SDS011;53444;45.822;16.092;2023-07-22T19:36:55;4.38;;;2.85;;
66585;SDS011;53444;45.822;16.092;2023-07-22T19:39:23;3.97;;;3.13;;
66585;SDS011;53444;45.822;16.092;2023-07-22T19:41:50;4.47;;;3.30;;
66585;SDS011;53444;45.822;16.092;2023-07-22T19:44:16;3.78;;;2.70;;
66585;SDS011;53444;45.822;16.092;2023-07-22T19:46:43;4.15;;;2.90;;
66585;SDS011;53444;45.822;16.092;2023-07-22T19:49:10;5.40;;;3.22;;
66585;SDS011;53444;45.822;16.092;2023-07-22T19:51:37;6.70;;;3.20;;
66585;SDS011;53444;45.822;16.092;2023-07-22T19:54:03;5.78;;;2.75;;
66585;SDS011;53444;45.822;16.092;2023-07-22T19:56:31;6.10;;;3.35;;
66585;SDS011;53444;45.822;16.092;2023-07-22T19:58:58;4.45;;;3.00;;
66585;SDS011;53444;45.822;16.092;2023-07-22T20:01:25;4.13;;;2.90;;
66585;SDS011;53444;45.822;16.092;2023-07-22T20:03:52;4.30;;;3.20;;
66585;SDS011;53444;45.822;16.092;2023-07-22T20:06:18;5.35;;;2.70;;
66585;SDS011;53444;45.822;16.092;2023-07-22T20:08:45;3.75;;;2.50;;
66585;SDS011;53444;45.822;16.092;2023-07-22T20:11:14;5.07;;;2.83;;
66585;SDS011;53444;45.822;16.092;2023-07-22T20:13:43;4.13;;;2.88;;
66585;SDS011;53444;45.822;16.092;2023-07-22T20:16:10;4.57;;;2.87;;
66585;SDS011;53444;45.822;16.092;2023-07-22T20:18:37;4.05;;;2.80;;
66585;SDS011;53444;45.822;16.092;2023-07-22T20:21:04;4.07;;;2.90;;
66585;SDS011;53444;45.822;16.092;2023-07-22T20:23:31;4.97;;;3.55;;
66585;SDS011;53444;45.822;16.092;2023-07-22T20:25:58;4.40;;;3.30;;
66585;SDS011;53444;45.822;16.092;2023-07-22T20:28:25;4.17;;;3.03;;
66585;SDS011;53444;45.822;16.092;2023-07-22T20:30:55;3.88;;;3.20;;
66585;SDS011;53444;45.822;16.092;2023-07-22T20:33:22;4.82;;;3.75;;
66585;SDS011;53444;45.822;16.092;2023-07-22T20:35:52;4.53;;;3.30;;
66585;SDS011;53444;45.822;16.092;2023-07-22T20:38:19;3.72;;;2.90;;
66585;SDS011;53444;45.822;16.092;2023-07-22T20:40:47;4.33;;;3.20;;
66585;SDS011;53444;45.822;16.092;2023-07-22T20:43:13;4.70;;;3.17;;
66585;SDS011;53444;45.822;16.092;2023-07-22T20:45:40;6.10;;;4.40;;
66585;SDS011;53444;45.822;16.092;2023-07-22T20:48:09;5.45;;;3.80;;
66585;SDS011;53444;45.822;16.092;2023-07-22T20:50:35;7.38;;;3.92;;
66585;SDS011;53444;45.822;16.092;2023-07-22T20:53:02;8.33;;;3.80;;
66585;SDS011;53444;45.822;16.092;2023-07-22T20:55:29;9.40;;;4.60;;
66585;SDS011;53444;45.822;16.092;2023-07-22T20:57:56;5.78;;;3.50;;
66585;SDS011;53444;45.822;16.092;2023-07-22T21:00:23;5.80;;;3.78;;
66585;SDS011;53444;45.822;16.092;2023-07-22T21:02:49;5.28;;;3.13;;
66585;SDS011;53444;45.822;16.092;2023-07-22T21:05:18;6.27;;;3.80;;
66585;SDS011;53444;45.822;16.092;2023-07-22T21:07:44;4.07;;;3.53;;